Time;durP1;ratioP1;P1;durP2;ratioP2;P2;SDS_P1;SDS_P2;PMS_P1;PMS_P2;Temp;Humidity;BMP_temperature;BMP_pressure;BME280_temperature;BME280_humidity;BME280_pressure;Samples;Min_cycle;Max_cycle;Signal;HPM_P1;HPM_P2
2022/01/09 00:01:59;;;;;;;;;;;22.40;32.60;;;;;;482164;246;1365;-40
2022/01/09 00:04:00;;;;;;;;;;;22.40;32.60;;;;;;482426;246;1049;-40
2022/01/09 00:06:01;;;;;;;;;;;22.40;32.60;;;;;;482152;246;1264;-39
2022/01/09 00:08:03;;;;;;;;;;;22.40;32.60;;;;;;482138;246;1192;-39
2022/01/09 00:10:04;;;;;;;;;;;22.40;32.60;;;;;;482358;246;1243;-40
2022/01/09 00:12:05;;;;;;;;;;;22.40;32.60;;;;;;482435;246;1228;-39
2022/01/09 00:14:07;;;;;;;;;;;22.40;32.50;;;;;;482325;246;1219;-39
2022/01/09 00:16:08;;;;;;;;;;;22.50;32.60;;;;;;482651;246;1324;-40
2022/01/09 00:18:09;;;;;;;;;;;22.50;32.50;;;;;;482307;246;2209;-40
2022/01/09 00:20:11;;;;;;;;;;;22.50;32.50;;;;;;482512;246;1084;-40
2022/01/09 00:22:13;;;;;;;;;;;22.50;32.60;;;;;;482667;246;1176;-39
2022/01/09 00:24:14;;;;;;;;;;;22.50;32.60;;;;;;482594;246;1085;-39
2022/01/09 00:26:15;;;;;;;;;;;22.50;32.60;;;;;;482185;246;1118;-39
2022/01/09 00:28:16;;;;;;;;;;;22.50;32.60;;;;;;482436;246;1333;-39
2022/01/09 00:30:18;;;;;;;;;;;22.50;32.50;;;;;;482338;246;1329;-39
2022/01/09 00:32:19;;;;;;;;;;;22.50;32.50;;;;;;482201;246;1128;-39
2022/01/09 00:34:20;;;;;;;;;;;22.50;32.50;;;;;;482270;246;1216;-39
2022/01/09 00:36:22;;;;;;;;;;;22.50;32.50;;;;;;482206;246;1140;-40
2022/01/09 00:38:23;;;;;;;;;;;22.50;32.50;;;;;;482205;246;2196;-39
2022/01/09 00:40:24;;;;;;;;;;;22.50;32.50;;;;;;482304;246;1035;-40
2022/01/09 00:42:26;;;;;;;;;;;22.60;32.60;;;;;;482241;246;1185;-40
2022/01/09 00:44:27;;;;;;;;;;;22.60;32.50;;;;;;482424;246;1180;-39
2022/01/09 00:46:28;;;;;;;;;;;22.60;32.50;;;;;;482203;246;1208;-39
2022/01/09 00:48:29;;;;;;;;;;;22.60;32.50;;;;;;482234;246;1581;-40
2022/01/09 00:50:31;;;;;;;;;;;22.60;32.50;;;;;;482434;246;1296;-40
2022/01/09 00:52:32;;;;;;;;;;;22.60;32.50;;;;;;482255;246;1132;-39
2022/01/09 00:54:34;;;;;;;;;;;22.60;32.50;;;;;;482621;246;1026;-39
2022/01/09 00:56:35;;;;;;;;;;;22.60;32.50;;;;;;482320;246;1378;-39
2022/01/09 00:58:36;;;;;;;;;;;22.60;32.50;;;;;;482502;246;2130;-40
2022/01/09 01:00:39;;;;;;;;;;;22.60;32.50;;;;;;482683;246;1060;-39
2022/01/09 01:02:39;;;;;;;;;;;22.60;32.50;;;;;;482106;247;2384;-39
2022/01/09 01:04:40;;;;;;;;;;;22.60;32.50;;;;;;482284;246;1058;-40
2022/01/09 01:06:41;;;;;;;;;;;22.60;32.50;;;;;;482238;246;1199;-39
2022/01/09 01:08:43;;;;;;;;;;;22.60;32.50;;;;;;482296;246;1254;-40
2022/01/09 01:10:44;;;;;;;;;;;22.60;32.50;;;;;;482258;246;1054;-40
2022/01/09 01:12:45;;;;;;;;;;;22.60;32.50;;;;;;482358;246;1663;-40
2022/01/09 01:14:47;;;;;;;;;;;22.60;32.40;;;;;;482361;246;1088;-39
2022/01/09 01:16:48;;;;;;;;;;;22.60;32.50;;;;;;482611;246;1204;-39
2022/01/09 01:18:49;;;;;;;;;;;22.60;32.50;;;;;;482280;246;2133;-40
2022/01/09 01:20:51;;;;;;;;;;;22.60;32.50;;;;;;482704;246;1099;-39
2022/01/09 01:22:52;;;;;;;;;;;22.70;32.60;;;;;;482487;246;1081;-39
2022/01/09 01:24:53;;;;;;;;;;;22.70;32.50;;;;;;482285;246;1067;-39
2022/01/09 01:26:54;;;;;;;;;;;22.60;32.50;;;;;;482264;246;1332;-39
2022/01/09 01:28:56;;;;;;;;;;;22.70;32.50;;;;;;482342;246;1174;-40
2022/01/09 01:30:57;;;;;;;;;;;22.70;32.50;;;;;;482432;246;1069;-40
2022/01/09 01:32:59;;;;;;;;;;;22.60;32.50;;;;;;482284;246;1093;-39
2022/01/09 01:35:00;;;;;;;;;;;22.50;32.60;;;;;;482761;246;1215;-39
2022/01/09 01:37:02;;;;;;;;;;;22.50;32.70;;;;;;482701;246;1041;-40
2022/01/09 01:39:03;;;;;;;;;;;22.30;33.00;;;;;;482703;246;2118;-39
2022/01/09 01:41:04;;;;;;;;;;;22.10;33.40;;;;;;482739;246;1130;-39
2022/01/09 01:43:05;;;;;;;;;;;22.00;33.70;;;;;;482441;246;1213;-39
2022/01/09 01:45:07;;;;;;;;;;;21.80;33.90;;;;;;482423;246;1179;-39
2022/01/09 01:47:08;;;;;;;;;;;21.70;34.10;;;;;;482413;246;1236;-39
2022/01/09 01:49:11;;;;;;;;;;;21.60;34.20;;;;;;482285;246;1194;-39
2022/01/09 01:51:12;;;;;;;;;;;21.50;34.40;;;;;;482216;246;1411;-39
2022/01/09 01:53:16;;;;;;;;;;;21.50;34.50;;;;;;482273;246;1048;-39
2022/01/09 01:55:14;;;;;;;;;;;21.40;34.50;;;;;;482094;247;2247;-39
2022/01/09 01:57:16;;;;;;;;;;;21.40;34.60;;;;;;482641;246;1227;-39
2022/01/09 01:59:17;;;;;;;;;;;21.40;34.70;;;;;;482532;243;2181;-39
2022/01/09 02:01:18;;;;;;;;;;;21.30;34.70;;;;;;482266;246;1287;-40
2022/01/09 02:03:20;;;;;;;;;;;21.30;34.80;;;;;;482228;246;1365;-40
2022/01/09 02:05:21;;;;;;;;;;;21.20;34.80;;;;;;482305;246;1036;-39
2022/01/09 02:07:22;;;;;;;;;;;21.20;34.90;;;;;;482634;246;1246;-39
2022/01/09 02:09:24;;;;;;;;;;;21.20;34.90;;;;;;482721;246;993;-39
2022/01/09 02:11:25;;;;;;;;;;;21.20;35.00;;;;;;482525;246;1034;-39
2022/01/09 02:13:26;;;;;;;;;;;21.20;35.10;;;;;;482334;246;1240;-39
2022/01/09 02:15:28;;;;;;;;;;;21.20;35.00;;;;;;482272;246;1206;-39
2022/01/09 02:17:29;;;;;;;;;;;21.10;35.10;;;;;;482264;246;1255;-39
2022/01/09 02:19:30;;;;;;;;;;;21.10;35.20;;;;;;482254;246;1092;-39
2022/01/09 02:21:32;;;;;;;;;;;21.10;35.20;;;;;;482697;246;1271;-39
2022/01/09 02:23:34;;;;;;;;;;;21.10;35.20;;;;;;482388;246;1282;-39
2022/01/09 02:25:34;;;;;;;;;;;21.00;35.30;;;;;;482226;246;1314;-40
2022/01/09 02:27:36;;;;;;;;;;;21.00;35.30;;;;;;482246;246;1266;-39
2022/01/09 02:29:37;;;;;;;;;;;21.00;35.30;;;;;;482281;246;1155;-39
2022/01/09 02:31:38;;;;;;;;;;;21.00;35.30;;;;;;482470;246;1292;-39
2022/01/09 02:33:40;;;;;;;;;;;21.00;35.30;;;;;;482249;246;1235;-39
2022/01/09 02:35:41;;;;;;;;;;;21.00;35.30;;;;;;482706;246;1380;-39
2022/01/09 02:37:42;;;;;;;;;;;20.90;35.30;;;;;;482250;246;2129;-39
2022/01/09 02:39:43;;;;;;;;;;;20.90;35.40;;;;;;482503;246;1332;-39
2022/01/09 02:41:45;;;;;;;;;;;20.90;35.40;;;;;;482387;246;1282;-39
2022/01/09 02:43:46;;;;;;;;;;;20.90;35.40;;;;;;482737;246;1006;-39
2022/01/09 02:45:53;;;;;;;;;;;20.90;35.40;;;;;;482332;246;1116;-39
2022/01/09 02:47:49;;;;;;;;;;;20.80;35.40;;;;;;482079;247;2072;-39
2022/01/09 02:49:53;;;;;;;;;;;20.90;35.50;;;;;;482728;246;1006;-39
2022/01/09 02:51:51;;;;;;;;;;;20.80;35.40;;;;;;482319;247;2216;-39
2022/01/09 02:54:07;;;;;;;;;;;20.80;35.40;;;;;;482352;246;1055;-39
2022/01/09 02:55:54;;;;;;;;;;;20.80;35.40;;;;;;481380;247;2250;-39
2022/01/09 02:57:55;;;;;;;;;;;20.80;35.50;;;;;;482352;246;2201;-39
2022/01/09 02:59:57;;;;;;;;;;;20.80;35.50;;;;;;482578;246;1211;-39
2022/01/09 03:01:58;;;;;;;;;;;20.80;35.50;;;;;;482444;246;1297;-39
2022/01/09 03:03:59;;;;;;;;;;;20.80;35.60;;;;;;482302;246;1062;-39
2022/01/09 03:06:01;;;;;;;;;;;20.80;35.60;;;;;;482266;246;1127;-39
2022/01/09 03:08:02;;;;;;;;;;;20.80;35.60;;;;;;482687;246;2269;-39
2022/01/09 03:10:03;;;;;;;;;;;20.80;35.60;;;;;;482337;246;1078;-39
2022/01/09 03:12:05;;;;;;;;;;;20.80;35.60;;;;;;482558;246;1166;-39
2022/01/09 03:14:07;;;;;;;;;;;20.70;35.60;;;;;;482445;246;1229;-40
2022/01/09 03:16:08;;;;;;;;;;;20.70;35.60;;;;;;482292;243;1320;-40
2022/01/09 03:18:10;;;;;;;;;;;20.80;35.60;;;;;;482226;246;2189;-39
2022/01/09 03:20:11;;;;;;;;;;;20.70;35.60;;;;;;482670;246;1686;-39
2022/01/09 03:22:12;;;;;;;;;;;20.70;35.70;;;;;;482160;246;1215;-39
2022/01/09 03:24:13;;;;;;;;;;;20.70;35.70;;;;;;482497;246;1171;-39
2022/01/09 03:26:14;;;;;;;;;;;20.70;35.60;;;;;;482709;246;1057;-39
2022/01/09 03:28:16;;;;;;;;;;;20.60;35.60;;;;;;482703;246;1208;-39
2022/01/09 03:30:17;;;;;;;;;;;20.60;35.60;;;;;;482320;246;1164;-40
2022/01/09 03:32:18;;;;;;;;;;;20.70;35.70;;;;;;482358;246;1325;-39
2022/01/09 03:34:20;;;;;;;;;;;20.70;35.70;;;;;;482305;246;1051;-39
2022/01/09 03:36:21;;;;;;;;;;;20.70;35.60;;;;;;482662;246;1336;-39
2022/01/09 03:38:22;;;;;;;;;;;20.70;35.70;;;;;;482456;246;2117;-39
2022/01/09 03:40:25;;;;;;;;;;;20.60;35.70;;;;;;482706;246;1204;-40
2022/01/09 03:42:26;;;;;;;;;;;20.60;35.70;;;;;;482700;246;1249;-39
2022/01/09 03:44:27;;;;;;;;;;;20.60;35.70;;;;;;482343;246;1170;-39
2022/01/09 03:46:28;;;;;;;;;;;20.60;35.70;;;;;;482226;243;1258;-39
2022/01/09 03:48:31;;;;;;;;;;;20.60;35.70;;;;;;482502;246;1213;-39
2022/01/09 03:50:32;;;;;;;;;;;20.60;35.70;;;;;;482188;247;2707;-39
2022/01/09 03:52:34;;;;;;;;;;;20.60;35.70;;;;;;482320;247;2181;-39
2022/01/09 03:54:36;;;;;;;;;;;20.60;35.70;;;;;;482681;247;1883;-39
2022/01/09 03:56:36;;;;;;;;;;;20.60;35.80;;;;;;482432;243;1412;-39
2022/01/09 03:58:37;;;;;;;;;;;20.60;35.80;;;;;;482285;246;2118;-39
2022/01/09 04:00:38;;;;;;;;;;;20.60;35.80;;;;;;482339;246;1140;-39
2022/01/09 04:02:40;;;;;;;;;;;20.60;35.70;;;;;;482274;246;1216;-39
2022/01/09 04:04:41;;;;;;;;;;;20.60;35.70;;;;;;482326;246;1030;-40
2022/01/09 04:06:46;;;;;;;;;;;20.50;35.70;;;;;;482442;246;1340;-39
2022/01/09 04:08:45;;;;;;;;;;;20.50;35.70;;;;;;482133;247;2679;-39
2022/01/09 04:10:48;;;;;;;;;;;20.50;35.80;;;;;;482272;246;1101;-39
2022/01/09 04:12:50;;;;;;;;;;;20.50;35.70;;;;;;482593;247;2281;-40
2022/01/09 04:14:49;;;;;;;;;;;20.50;35.70;;;;;;482174;247;2453;-39
2022/01/09 04:16:50;;;;;;;;;;;20.50;35.80;;;;;;482294;246;1137;-39
2022/01/09 04:18:52;;;;;;;;;;;20.50;35.80;;;;;;482483;246;2113;-39
2022/01/09 04:20:53;;;;;;;;;;;20.50;35.80;;;;;;482741;246;1250;-39
2022/01/09 04:22:54;;;;;;;;;;;20.50;35.80;;;;;;482315;246;1060;-39
2022/01/09 04:24:56;;;;;;;;;;;20.50;35.80;;;;;;482549;246;1256;-39
2022/01/09 04:26:57;;;;;;;;;;;20.50;35.80;;;;;;482346;246;1372;-39
2022/01/09 04:28:58;;;;;;;;;;;20.50;35.80;;;;;;482288;246;1106;-39
2022/01/09 04:30:59;;;;;;;;;;;20.50;35.70;;;;;;482488;246;1330;-39
2022/01/09 04:33:01;;;;;;;;;;;20.50;35.80;;;;;;482364;246;1270;-39
2022/01/09 04:35:02;;;;;;;;;;;20.50;35.80;;;;;;482275;246;1158;-39
2022/01/09 04:37:03;;;;;;;;;;;20.50;35.70;;;;;;482251;246;1190;-39
2022/01/09 04:39:05;;;;;;;;;;;20.50;35.90;;;;;;482638;246;2118;-39
2022/01/09 04:41:06;;;;;;;;;;;20.50;35.80;;;;;;482267;246;1242;-39
2022/01/09 04:43:09;;;;;;;;;;;20.40;35.80;;;;;;482616;246;1200;-39
2022/01/09 04:45:09;;;;;;;;;;;20.50;35.90;;;;;;482571;247;2186;-39
2022/01/09 04:47:14;;;;;;;;;;;20.40;35.90;;;;;;482209;246;1272;-39
2022/01/09 04:49:11;;;;;;;;;;;20.50;35.90;;;;;;482111;247;1770;-39
2022/01/09 04:51:14;;;;;;;;;;;20.50;35.90;;;;;;482433;246;1159;-39
2022/01/09 04:53:14;;;;;;;;;;;20.50;35.90;;;;;;482111;247;1479;-39
2022/01/09 04:55:15;;;;;;;;;;;20.50;35.90;;;;;;482729;246;1130;-39
2022/01/09 04:57:16;;;;;;;;;;;20.50;35.90;;;;;;482516;246;1253;-40
2022/01/09 04:59:18;;;;;;;;;;;20.50;35.80;;;;;;482374;246;2189;-39
2022/01/09 05:01:19;;;;;;;;;;;20.50;35.90;;;;;;482356;246;1559;-39
2022/01/09 05:03:20;;;;;;;;;;;20.40;35.90;;;;;;482530;246;1115;-39
2022/01/09 05:05:22;;;;;;;;;;;20.40;35.90;;;;;;482780;246;1015;-39
2022/01/09 05:07:23;;;;;;;;;;;20.50;35.90;;;;;;482728;246;1217;-39
2022/01/09 05:09:24;;;;;;;;;;;20.50;35.90;;;;;;482362;246;1216;-39
2022/01/09 05:11:26;;;;;;;;;;;20.40;35.80;;;;;;482768;243;1167;-39
2022/01/09 05:13:27;;;;;;;;;;;20.40;35.90;;;;;;482360;246;1201;-39
2022/01/09 05:15:28;;;;;;;;;;;20.50;35.90;;;;;;482772;246;1029;-39
2022/01/09 05:17:30;;;;;;;;;;;20.40;35.80;;;;;;482316;246;1181;-39
2022/01/09 05:19:33;;;;;;;;;;;20.40;35.90;;;;;;482776;246;2189;-39
2022/01/09 05:21:32;;;;;;;;;;;20.40;35.80;;;;;;482280;247;2222;-39
2022/01/09 05:23:34;;;;;;;;;;;20.40;35.90;;;;;;482377;246;1005;-39
2022/01/09 05:25:35;;;;;;;;;;;20.40;35.90;;;;;;482782;246;1042;-39
2022/01/09 05:27:36;;;;;;;;;;;20.40;35.80;;;;;;482364;246;1199;-39
2022/01/09 05:29:38;;;;;;;;;;;20.40;35.80;;;;;;482505;246;1021;-39
2022/01/09 05:31:39;;;;;;;;;;;20.50;35.90;;;;;;482536;246;1266;-39
2022/01/09 05:33:40;;;;;;;;;;;20.40;36.00;;;;;;482454;246;1099;-39
2022/01/09 05:35:41;;;;;;;;;;;20.40;35.90;;;;;;482698;246;1101;-39
2022/01/09 05:37:43;;;;;;;;;;;20.40;36.00;;;;;;482680;246;1294;-40
2022/01/09 05:39:44;;;;;;;;;;;20.40;35.90;;;;;;482792;246;2181;-39
2022/01/09 05:41:45;;;;;;;;;;;20.40;35.90;;;;;;482703;246;1297;-39
2022/01/09 05:43:47;;;;;;;;;;;20.30;35.90;;;;;;482792;246;1086;-39
2022/01/09 05:45:48;;;;;;;;;;;20.40;36.00;;;;;;482533;246;1312;-40
2022/01/09 05:47:49;;;;;;;;;;;20.30;35.90;;;;;;482328;246;1236;-39
2022/01/09 05:49:51;;;;;;;;;;;20.40;36.00;;;;;;482713;246;1053;-39
2022/01/09 05:51:52;;;;;;;;;;;20.40;36.00;;;;;;482443;246;1221;-39
2022/01/09 05:53:53;;;;;;;;;;;20.40;35.90;;;;;;482392;246;1061;-39
2022/01/09 05:55:55;;;;;;;;;;;20.30;35.90;;;;;;482649;246;1329;-40
2022/01/09 05:57:56;;;;;;;;;;;20.40;35.90;;;;;;482663;246;1271;-40
2022/01/09 05:59:57;;;;;;;;;;;20.40;35.90;;;;;;482681;246;2121;-40
2022/01/09 06:01:59;;;;;;;;;;;20.40;36.00;;;;;;482271;246;1404;-39
2022/01/09 06:04:00;;;;;;;;;;;20.30;35.90;;;;;;482468;246;1052;-39
2022/01/09 06:06:01;;;;;;;;;;;20.40;35.90;;;;;;482745;246;1056;-39
2022/01/09 06:08:03;;;;;;;;;;;20.40;36.00;;;;;;482255;246;1257;-39
2022/01/09 06:10:04;;;;;;;;;;;20.30;35.90;;;;;;482658;246;1062;-39
2022/01/09 06:12:05;;;;;;;;;;;20.40;36.00;;;;;;482533;246;1037;-39
2022/01/09 06:14:06;;;;;;;;;;;20.40;36.00;;;;;;482340;246;1061;-39
2022/01/09 06:16:08;;;;;;;;;;;20.30;36.00;;;;;;482672;246;1057;-39
2022/01/09 06:18:09;;;;;;;;;;;20.30;36.00;;;;;;482342;246;1213;-39
2022/01/09 06:20:10;;;;;;;;;;;20.30;36.00;;;;;;482744;246;2129;-39
2022/01/09 06:22:17;;;;;;;;;;;20.30;35.90;;;;;;482301;246;1222;-39
2022/01/09 06:24:13;;;;;;;;;;;20.30;36.00;;;;;;481979;247;2436;-39
2022/01/09 06:26:14;;;;;;;;;;;20.40;36.10;;;;;;482659;246;1166;-39
2022/01/09 06:28:16;;;;;;;;;;;20.40;36.00;;;;;;482305;246;1173;-39
2022/01/09 06:30:17;;;;;;;;;;;20.30;36.00;;;;;;482327;246;1095;-39
2022/01/09 06:32:18;;;;;;;;;;;20.30;36.00;;;;;;482363;246;1237;-39
2022/01/09 06:34:20;;;;;;;;;;;20.40;36.00;;;;;;482657;246;1049;-39
2022/01/09 06:36:21;;;;;;;;;;;20.40;36.00;;;;;;482265;246;1325;-40
2022/01/09 06:38:22;;;;;;;;;;;20.30;36.00;;;;;;482680;246;1241;-39
2022/01/09 06:40:24;;;;;;;;;;;20.30;36.00;;;;;;482458;246;2189;-39
2022/01/09 06:42:25;;;;;;;;;;;20.40;36.00;;;;;;482334;246;2195;-39
2022/01/09 06:44:26;;;;;;;;;;;20.30;36.00;;;;;;482741;246;1149;-39
2022/01/09 06:46:28;;;;;;;;;;;20.30;36.10;;;;;;482467;246;1369;-39
2022/01/09 06:48:29;;;;;;;;;;;20.30;36.10;;;;;;482279;246;1177;-39
2022/01/09 06:50:30;;;;;;;;;;;20.30;36.00;;;;;;482533;246;1278;-39
2022/01/09 06:52:32;;;;;;;;;;;20.30;36.00;;;;;;482212;246;1223;-39
2022/01/09 06:54:33;;;;;;;;;;;20.30;36.10;;;;;;482504;246;1222;-39
2022/01/09 06:56:34;;;;;;;;;;;20.20;36.00;;;;;;482266;246;1227;-39
2022/01/09 06:58:36;;;;;;;;;;;20.30;36.00;;;;;;482639;246;1280;-40
2022/01/09 07:00:37;;;;;;;;;;;20.30;36.10;;;;;;482372;246;2122;-39
2022/01/09 07:02:39;;;;;;;;;;;20.30;36.10;;;;;;482193;246;1213;-39
2022/01/09 07:04:40;;;;;;;;;;;20.30;36.00;;;;;;482666;246;1048;-39
2022/01/09 07:06:41;;;;;;;;;;;20.30;36.10;;;;;;482254;246;1208;-39
2022/01/09 07:08:43;;;;;;;;;;;20.20;36.10;;;;;;482462;246;1200;-39
2022/01/09 07:10:44;;;;;;;;;;;20.20;36.00;;;;;;482631;246;1069;-39
2022/01/09 07:12:45;;;;;;;;;;;20.20;36.00;;;;;;482376;246;1256;-40
2022/01/09 07:14:46;;;;;;;;;;;20.30;36.00;;;;;;482683;246;995;-39
2022/01/09 07:16:48;;;;;;;;;;;20.30;36.00;;;;;;482411;246;1325;-39
2022/01/09 07:18:49;;;;;;;;;;;20.30;36.00;;;;;;482305;246;1245;-40
2022/01/09 07:20:50;;;;;;;;;;;20.20;36.00;;;;;;482516;246;2197;-39
2022/01/09 07:22:52;;;;;;;;;;;20.30;36.00;;;;;;482202;246;1134;-39
2022/01/09 07:24:53;;;;;;;;;;;20.30;36.10;;;;;;482703;246;1044;-39
2022/01/09 07:26:54;;;;;;;;;;;20.30;36.10;;;;;;482271;246;1500;-39
2022/01/09 07:28:56;;;;;;;;;;;20.20;36.10;;;;;;482303;246;1191;-39
2022/01/09 07:30:58;;;;;;;;;;;20.30;36.10;;;;;;482333;246;1358;-39
2022/01/09 07:32:58;;;;;;;;;;;20.20;36.00;;;;;;482234;247;1352;-39
2022/01/09 07:35:00;;;;;;;;;;;20.30;36.10;;;;;;482392;246;1052;-39
2022/01/09 07:37:01;;;;;;;;;;;20.20;36.10;;;;;;482342;246;1333;-39
2022/01/09 07:39:02;;;;;;;;;;;20.20;36.10;;;;;;482351;246;1231;-39
2022/01/09 07:41:04;;;;;;;;;;;20.20;36.00;;;;;;482496;246;2212;-39
2022/01/09 07:43:05;;;;;;;;;;;20.30;36.10;;;;;;482431;246;1083;-39
2022/01/09 07:45:07;;;;;;;;;;;20.20;36.10;;;;;;482311;246;1059;-39
2022/01/09 07:47:08;;;;;;;;;;;20.30;36.10;;;;;;482366;246;1297;-39
2022/01/09 07:49:10;;;;;;;;;;;20.20;36.10;;;;;;482761;246;1081;-39
2022/01/09 07:51:11;;;;;;;;;;;20.20;36.00;;;;;;482442;246;1337;-39
2022/01/09 07:53:12;;;;;;;;;;;20.30;36.10;;;;;;482232;246;1068;-40
2022/01/09 07:55:14;;;;;;;;;;;20.20;36.00;;;;;;482733;246;1024;-39
2022/01/09 07:57:15;;;;;;;;;;;20.20;36.00;;;;;;482269;246;2704;-39
2022/01/09 07:59:16;;;;;;;;;;;20.20;36.10;;;;;;482320;246;1055;-39
2022/01/09 08:01:17;;;;;;;;;;;20.20;36.10;;;;;;482258;246;2113;-39
2022/01/09 08:03:19;;;;;;;;;;;20.20;36.10;;;;;;482429;246;1119;-39
2022/01/09 08:05:20;;;;;;;;;;;20.20;36.20;;;;;;482693;246;1080;-39
2022/01/09 08:07:21;;;;;;;;;;;20.20;36.10;;;;;;482182;246;1332;-39
2022/01/09 08:09:23;;;;;;;;;;;20.20;36.10;;;;;;482549;246;1101;-39
2022/01/09 08:11:24;;;;;;;;;;;20.20;36.10;;;;;;482242;246;1385;-39
2022/01/09 08:13:25;;;;;;;;;;;20.20;36.10;;;;;;482470;246;1680;-39
2022/01/09 08:15:27;;;;;;;;;;;20.20;36.10;;;;;;482246;246;1079;-39
2022/01/09 08:17:28;;;;;;;;;;;20.20;36.10;;;;;;482293;246;1374;-39
2022/01/09 08:19:30;;;;;;;;;;;20.20;36.10;;;;;;482494;246;1078;-39
2022/01/09 08:21:31;;;;;;;;;;;20.20;36.20;;;;;;482154;246;2524;-39
2022/01/09 08:23:32;;;;;;;;;;;20.20;36.10;;;;;;482355;246;1058;-39
2022/01/09 08:25:33;;;;;;;;;;;20.20;36.10;;;;;;482275;246;1214;-39
2022/01/09 08:27:35;;;;;;;;;;;20.20;36.10;;;;;;482603;246;1514;-40
2022/01/09 08:29:37;;;;;;;;;;;20.30;35.90;;;;;;482463;246;1101;-39
2022/01/09 08:31:38;;;;;;;;;;;20.50;35.60;;;;;;482556;246;1176;-39
2022/01/09 08:33:39;;;;;;;;;;;20.60;35.30;;;;;;482253;246;1232;-39
2022/01/09 08:35:41;;;;;;;;;;;20.80;35.00;;;;;;482399;246;1176;-39
2022/01/09 08:37:43;;;;;;;;;;;20.90;34.70;;;;;;482595;246;1191;-39
2022/01/09 08:39:44;;;;;;;;;;;21.10;34.60;;;;;;482502;247;2195;-39
2022/01/09 08:41:45;;;;;;;;;;;21.10;34.40;;;;;;482285;246;1205;-39
2022/01/09 08:43:47;;;;;;;;;;;21.20;34.30;;;;;;482694;246;1060;-39
2022/01/09 08:45:48;;;;;;;;;;;21.30;34.20;;;;;;482651;246;1274;-39
2022/01/09 08:47:49;;;;;;;;;;;21.30;34.10;;;;;;482577;246;1291;-39
2022/01/09 08:49:51;;;;;;;;;;;21.30;34.00;;;;;;482699;246;1051;-39
2022/01/09 08:51:53;;;;;;;;;;;21.40;34.00;;;;;;482333;246;1436;-39
2022/01/09 08:53:53;;;;;;;;;;;21.40;33.90;;;;;;482196;247;2215;-39
2022/01/09 08:55:54;;;;;;;;;;;21.50;33.80;;;;;;482630;246;1378;-39
2022/01/09 08:57:57;;;;;;;;;;;21.50;33.70;;;;;;482512;246;1160;-39
2022/01/09 08:59:58;;;;;;;;;;;21.60;33.80;;;;;;482264;246;2184;-39
2022/01/09 09:01:59;;;;;;;;;;;21.60;33.70;;;;;;482172;246;1219;-39
2022/01/09 09:04:01;;;;;;;;;;;21.60;33.60;;;;;;482434;246;1221;-39
2022/01/09 09:06:02;;;;;;;;;;;21.60;33.60;;;;;;482259;246;1403;-39
2022/01/09 09:08:03;;;;;;;;;;;21.70;33.60;;;;;;482683;246;1079;-40
2022/01/09 09:10:05;;;;;;;;;;;21.70;33.50;;;;;;482274;246;1066;-40
2022/01/09 09:12:06;;;;;;;;;;;21.70;33.40;;;;;;482454;246;1180;-40
2022/01/09 09:14:07;;;;;;;;;;;21.80;33.40;;;;;;482303;246;1017;-39
2022/01/09 09:16:10;;;;;;;;;;;21.80;33.40;;;;;;482257;246;1446;-39
2022/01/09 09:18:10;;;;;;;;;;;21.80;33.40;;;;;;482508;246;2283;-39
2022/01/09 09:20:11;;;;;;;;;;;21.80;33.30;;;;;;482485;246;2196;-39
2022/01/09 09:22:13;;;;;;;;;;;21.90;33.30;;;;;;482631;246;1147;-39
2022/01/09 09:24:14;;;;;;;;;;;21.90;33.30;;;;;;482674;246;1051;-40
2022/01/09 09:26:16;;;;;;;;;;;21.90;33.30;;;;;;482393;246;1474;-39
2022/01/09 09:28:17;;;;;;;;;;;21.90;33.20;;;;;;482286;246;1895;-39
2022/01/09 09:30:18;;;;;;;;;;;21.90;33.20;;;;;;482341;246;1036;-39
2022/01/09 09:32:20;;;;;;;;;;;21.90;33.20;;;;;;482343;246;1324;-39
2022/01/09 09:34:21;;;;;;;;;;;22.00;33.20;;;;;;482277;246;1233;-39
2022/01/09 09:36:24;;;;;;;;;;;22.00;33.10;;;;;;482674;243;1695;-39
2022/01/09 09:38:24;;;;;;;;;;;22.00;33.10;;;;;;482230;247;1683;-39
2022/01/09 09:40:25;;;;;;;;;;;22.00;33.10;;;;;;482705;246;2110;-39
2022/01/09 09:42:26;;;;;;;;;;;22.00;33.10;;;;;;482564;246;1282;-40
2022/01/09 09:44:27;;;;;;;;;;;22.00;33.10;;;;;;482422;246;1045;-39
2022/01/09 09:46:29;;;;;;;;;;;22.00;33.10;;;;;;482707;246;1383;-40
2022/01/09 09:48:30;;;;;;;;;;;22.00;33.10;;;;;;482231;246;1282;-39
2022/01/09 09:50:31;;;;;;;;;;;22.10;33.10;;;;;;482310;246;1002;-39
2022/01/09 09:52:33;;;;;;;;;;;22.10;33.00;;;;;;482344;246;1216;-39
2022/01/09 09:54:34;;;;;;;;;;;22.10;33.00;;;;;;482738;246;1059;-39
2022/01/09 09:56:35;;;;;;;;;;;22.10;33.00;;;;;;482415;246;1302;-40
2022/01/09 09:58:37;;;;;;;;;;;22.10;33.00;;;;;;482335;246;1066;-40
2022/01/09 10:00:39;;;;;;;;;;;22.10;33.00;;;;;;482753;246;2114;-39
2022/01/09 10:02:40;;;;;;;;;;;22.10;32.90;;;;;;482252;246;2335;-40
2022/01/09 10:04:41;;;;;;;;;;;22.10;33.00;;;;;;482493;246;1258;-40
2022/01/09 10:06:42;;;;;;;;;;;22.20;33.00;;;;;;482223;246;1491;-40
2022/01/09 10:08:44;;;;;;;;;;;22.20;33.00;;;;;;482363;246;1092;-39
2022/01/09 10:10:45;;;;;;;;;;;22.20;33.00;;;;;;482474;246;2099;-40
2022/01/09 10:12:46;;;;;;;;;;;22.20;33.00;;;;;;482241;246;1212;-39
2022/01/09 10:14:48;;;;;;;;;;;22.20;32.90;;;;;;482647;246;1028;-39
2022/01/09 10:16:49;;;;;;;;;;;22.20;32.90;;;;;;482704;246;1169;-39
2022/01/09 10:18:50;;;;;;;;;;;22.20;32.90;;;;;;482317;246;1160;-39
2022/01/09 10:20:51;;;;;;;;;;;22.20;32.90;;;;;;482258;246;2208;-39
2022/01/09 10:22:53;;;;;;;;;;;22.20;32.90;;;;;;482254;246;1171;-40
2022/01/09 10:24:55;;;;;;;;;;;22.20;32.90;;;;;;482329;246;1040;-39
2022/01/09 10:26:55;;;;;;;;;;;22.30;32.90;;;;;;482175;246;2811;-40
2022/01/09 10:28:57;;;;;;;;;;;22.20;32.80;;;;;;482307;246;1053;-39
2022/01/09 10:30:59;;;;;;;;;;;22.30;32.90;;;;;;482678;246;1173;-40
2022/01/09 10:32:59;;;;;;;;;;;22.20;32.80;;;;;;482235;247;1504;-39
2022/01/09 10:35:01;;;;;;;;;;;22.30;32.90;;;;;;482335;246;1177;-40
2022/01/09 10:37:02;;;;;;;;;;;22.30;32.90;;;;;;482428;246;1144;-40
2022/01/09 10:39:03;;;;;;;;;;;22.30;32.90;;;;;;482401;246;1079;-40
2022/01/09 10:41:05;;;;;;;;;;;22.30;32.80;;;;;;482243;246;2240;-39
2022/01/09 10:43:06;;;;;;;;;;;22.30;32.80;;;;;;482310;246;1179;-39
2022/01/09 10:45:07;;;;;;;;;;;22.30;32.80;;;;;;482745;246;1031;-39
2022/01/09 10:47:09;;;;;;;;;;;22.30;32.80;;;;;;482441;246;1224;-40
2022/01/09 10:49:10;;;;;;;;;;;22.30;32.80;;;;;;482700;246;1163;-39
2022/01/09 10:51:12;;;;;;;;;;;22.40;32.80;;;;;;482424;246;1474;-39
2022/01/09 10:53:14;;;;;;;;;;;22.40;32.80;;;;;;482541;246;1028;-39
2022/01/09 10:55:14;;;;;;;;;;;22.30;32.80;;;;;;482279;246;2189;-39
2022/01/09 10:57:15;;;;;;;;;;;22.40;32.80;;;;;;482220;246;1330;-40
2022/01/09 10:59:17;;;;;;;;;;;22.40;32.80;;;;;;482330;246;1078;-39
2022/01/09 11:01:18;;;;;;;;;;;22.40;32.80;;;;;;482229;246;2138;-40
2022/01/09 11:03:19;;;;;;;;;;;22.40;32.80;;;;;;482751;246;1064;-39
2022/01/09 11:05:21;;;;;;;;;;;22.40;32.80;;;;;;482442;246;1195;-40
2022/01/09 11:07:22;;;;;;;;;;;22.40;32.80;;;;;;482592;246;1265;-40
2022/01/09 11:09:25;;;;;;;;;;;22.40;32.80;;;;;;482472;246;1638;-39
2022/01/09 11:11:29;;;;;;;;;;;22.40;32.70;;;;;;482383;246;2367;-40
2022/01/09 11:13:28;;;;;;;;;;;22.40;32.80;;;;;;482089;247;1433;-39
2022/01/09 11:15:31;;;;;;;;;;;22.40;32.80;;;;;;482544;246;1237;-39
2022/01/09 11:17:30;;;;;;;;;;;22.40;32.70;;;;;;482105;247;2490;-40
2022/01/09 11:19:32;;;;;;;;;;;22.40;32.80;;;;;;482672;246;1125;-39
2022/01/09 11:21:34;;;;;;;;;;;22.40;32.80;;;;;;482322;246;2133;-39
2022/01/09 11:23:35;;;;;;;;;;;22.40;32.80;;;;;;482266;246;1046;-39
2022/01/09 11:25:37;;;;;;;;;;;22.50;32.80;;;;;;482719;246;1062;-40
2022/01/09 11:27:38;;;;;;;;;;;22.40;32.80;;;;;;482276;246;2254;-40
2022/01/09 11:29:39;;;;;;;;;;;22.50;32.80;;;;;;482756;246;1018;-40
2022/01/09 11:31:41;;;;;;;;;;;22.50;32.80;;;;;;482553;246;1213;-39
2022/01/09 11:33:42;;;;;;;;;;;22.50;32.80;;;;;;482290;246;1243;-40
2022/01/09 11:35:44;;;;;;;;;;;22.50;32.80;;;;;;482312;246;1224;-40
2022/01/09 11:37:45;;;;;;;;;;;22.50;32.80;;;;;;482119;247;2192;-39
2022/01/09 11:39:46;;;;;;;;;;;22.50;32.70;;;;;;482678;246;1051;-40
2022/01/09 11:41:47;;;;;;;;;;;22.50;32.70;;;;;;482630;246;2209;-39
2022/01/09 11:43:48;;;;;;;;;;;22.50;32.80;;;;;;482449;246;963;-39
2022/01/09 11:45:50;;;;;;;;;;;22.50;32.80;;;;;;482741;246;1185;-39
2022/01/09 11:47:51;;;;;;;;;;;22.50;32.70;;;;;;482331;246;1333;-39
2022/01/09 11:49:53;;;;;;;;;;;22.50;32.70;;;;;;482659;246;1148;-39
2022/01/09 11:51:54;;;;;;;;;;;22.50;32.80;;;;;;482646;246;1455;-39
2022/01/09 11:53:55;;;;;;;;;;;22.50;32.80;;;;;;482242;246;1156;-39
2022/01/09 11:55:56;;;;;;;;;;;22.50;32.80;;;;;;482669;246;1115;-40
2022/01/09 11:57:58;;;;;;;;;;;22.50;32.80;;;;;;482259;246;1099;-40